createdAt,value
2022-10-13T00:00:59.571Z,22.38
2022-10-13T00:03:26.774Z,20.23
2022-10-13T00:05:53.910Z,18.98
2022-10-13T00:08:21.867Z,22.70
2022-10-13T00:10:50.401Z,23.48
2022-10-13T00:13:20.000Z,24.85
2022-10-13T00:15:47.670Z,20.25
2022-10-13T00:18:15.503Z,20.40
2022-10-13T00:20:43.582Z,22.95
2022-10-13T00:23:10.803Z,23.00
2022-10-13T00:25:41.295Z,18.50
2022-10-13T00:28:08.403Z,21.63
2022-10-13T00:30:35.935Z,22.20
2022-10-13T00:33:03.020Z,21.25
2022-10-13T00:35:30.153Z,22.90
2022-10-13T00:37:57.252Z,20.48
2022-10-13T00:40:28.455Z,24.38
2022-10-13T00:42:55.490Z,17.80
2022-10-13T00:45:27.081Z,19.98
2022-10-13T00:47:56.094Z,19.13
2022-10-13T00:50:32.678Z,21.50
2022-10-13T00:53:03.137Z,20.83
2022-10-13T00:55:31.707Z,19.75
2022-10-13T00:58:05.206Z,19.30
2022-10-13T01:00:34.374Z,23.45
2022-10-13T01:03:02.504Z,19.33
2022-10-13T01:05:30.359Z,22.92
2022-10-13T01:07:57.528Z,21.85
2022-10-13T01:10:44.856Z,23.63
2022-10-13T01:13:32.155Z,22.98
2022-10-13T01:16:16.471Z,21.50
2022-10-13T01:18:54.698Z,21.58
2022-10-13T01:21:24.469Z,21.95
2022-10-13T01:24:09.565Z,24.70
2022-10-13T01:26:42.969Z,18.63
2022-10-13T01:29:09.974Z,19.83
2022-10-13T01:31:47.278Z,22.00
2022-10-13T01:34:30.470Z,23.52
2022-10-13T01:37:05.930Z,17.90
2022-10-13T01:39:38.539Z,22.42
2022-10-13T01:42:12.866Z,20.88
2022-10-13T01:44:42.163Z,23.27
2022-10-13T01:47:11.050Z,21.67
2022-10-13T01:49:39.048Z,24.27
2022-10-13T01:52:08.140Z,16.52
2022-10-13T01:54:35.472Z,21.17
2022-10-13T01:57:02.578Z,21.88
2022-10-13T01:59:30.645Z,20.75
2022-10-13T02:02:29.114Z,22.02
2022-10-13T02:05:11.725Z,25.10
2022-10-13T02:07:41.831Z,25.95
2022-10-13T02:10:09.485Z,21.58
2022-10-13T02:12:42.572Z,22.00
2022-10-13T02:15:12.902Z,18.65
2022-10-13T02:20:07.291Z,23.35
2022-10-13T02:22:38.940Z,21.42
2022-10-13T02:25:06.461Z,20.15
2022-10-13T02:27:33.573Z,17.27
2022-10-13T02:30:00.774Z,20.45
2022-10-13T02:32:29.850Z,22.02
2022-10-13T02:34:56.928Z,17.98
2022-10-13T02:37:25.569Z,19.35
2022-10-13T02:39:52.827Z,22.48
2022-10-13T02:42:20.366Z,22.77
2022-10-13T02:44:47.506Z,20.85
2022-10-13T02:47:14.585Z,24.63
2022-10-13T02:49:41.631Z,27.02
2022-10-13T02:52:08.754Z,22.70
2022-10-13T02:54:42.175Z,24.38
2022-10-13T02:57:09.196Z,20.05
2022-10-13T02:59:36.276Z,26.23
2022-10-13T03:02:03.001Z,21.60
2022-10-13T03:04:30.399Z,23.75
2022-10-13T03:06:59.450Z,27.23
2022-10-13T03:09:26.512Z,23.42
2022-10-13T03:11:53.560Z,21.15
2022-10-13T03:14:20.993Z,22.65
2022-10-13T03:16:48.071Z,21.77
2022-10-13T03:19:15.300Z,20.17
2022-10-13T03:21:42.563Z,22.08
2022-10-13T03:24:09.714Z,18.98
2022-10-13T03:26:36.759Z,18.13
2022-10-13T03:29:03.834Z,21.67
2022-10-13T03:31:31.025Z,24.08
2022-10-13T03:34:02.435Z,22.00
2022-10-13T03:36:29.071Z,22.73
2022-10-13T03:38:56.110Z,24.02
2022-10-13T03:41:23.158Z,22.90
2022-10-13T03:43:51.055Z,21.92
2022-10-13T03:46:19.103Z,24.08
2022-10-13T03:48:47.542Z,19.30
2022-10-13T03:51:15.942Z,23.98
2022-10-13T03:53:45.757Z,23.42
2022-10-13T03:56:17.414Z,19.75
2022-10-13T03:58:54.043Z,19.08
2022-10-13T04:01:22.370Z,22.48
2022-10-13T04:03:50.306Z,21.90
2022-10-13T04:06:17.699Z,21.08
2022-10-13T04:08:44.870Z,22.95
2022-10-13T04:11:13.294Z,22.45
2022-10-13T04:13:42.109Z,21.48
2022-10-13T04:16:11.799Z,19.85
2022-10-13T04:18:42.398Z,21.55
2022-10-13T04:21:12.811Z,22.60
2022-10-13T04:23:39.830Z,22.92
2022-10-13T04:26:07.220Z,20.02
2022-10-13T04:28:35.871Z,25.52
2022-10-13T04:31:03.841Z,22.90
2022-10-13T04:33:31.422Z,22.83
2022-10-13T04:35:58.655Z,21.35
2022-10-13T04:38:25.732Z,24.77
2022-10-13T04:40:52.780Z,23.58
2022-10-13T04:43:19.880Z,20.67
2022-10-13T04:45:48.539Z,22.05
2022-10-13T04:48:15.611Z,21.73
2022-10-13T04:50:42.763Z,22.95
2022-10-13T04:53:09.805Z,22.20
2022-10-13T04:55:37.366Z,23.48
2022-10-13T04:58:04.492Z,22.38
2022-10-13T05:00:31.606Z,23.33
2022-10-13T05:02:58.268Z,20.00
2022-10-13T05:05:25.374Z,21.45
2022-10-13T05:07:52.447Z,21.70
2022-10-13T05:10:19.787Z,20.58
2022-10-13T05:12:46.847Z,21.85
2022-10-13T05:15:13.983Z,24.75
2022-10-13T05:17:41.048Z,23.65
2022-10-13T05:20:11.560Z,21.58
2022-10-13T05:22:39.523Z,22.98
2022-10-13T05:25:06.874Z,22.40
2022-10-13T05:27:33.923Z,26.55
2022-10-13T05:30:04.651Z,21.60
2022-10-13T05:32:31.730Z,21.70
2022-10-13T05:34:58.835Z,22.67
2022-10-13T05:37:25.876Z,25.25
2022-10-13T05:39:53.762Z,26.08
2022-10-13T05:42:20.996Z,23.58
2022-10-13T05:44:48.359Z,25.85
2022-10-13T05:47:15.419Z,20.27
2022-10-13T05:49:42.499Z,26.50
2022-10-13T05:52:12.427Z,23.80
2022-10-13T05:54:42.548Z,22.15
2022-10-13T05:57:28.312Z,26.40
2022-10-13T06:00:03.639Z,27.00
2022-10-13T06:02:44.214Z,26.00
2022-10-13T06:05:16.332Z,29.63
2022-10-13T06:07:44.029Z,21.55
2022-10-13T06:10:11.734Z,25.35
2022-10-13T06:12:39.092Z,29.13
2022-10-13T06:15:06.357Z,20.23
2022-10-13T06:17:36.106Z,28.10
2022-10-13T06:20:05.427Z,30.17
2022-10-13T06:22:33.338Z,26.00
2022-10-13T06:25:00.750Z,27.15
2022-10-13T06:27:29.719Z,25.13
2022-10-13T06:29:57.519Z,30.23
2022-10-13T06:32:25.095Z,26.40
2022-10-13T06:34:51.688Z,31.90
2022-10-13T06:37:21.200Z,26.40
2022-10-13T06:39:51.866Z,26.08
2022-10-13T06:42:19.174Z,25.88
2022-10-13T06:44:48.106Z,18.05
2022-10-13T06:47:15.148Z,24.73
2022-10-13T06:49:42.243Z,24.80
2022-10-13T06:52:13.259Z,25.27
2022-10-13T06:54:40.847Z,26.73
2022-10-13T06:57:07.927Z,25.52
2022-10-13T06:59:35.150Z,25.20
2022-10-13T07:02:02.262Z,24.33
2022-10-13T07:04:29.428Z,29.52
2022-10-13T07:06:58.183Z,31.15
2022-10-13T07:09:25.223Z,25.23
2022-10-13T07:11:52.544Z,25.08
2022-10-13T07:14:19.844Z,26.42
2022-10-13T07:16:48.432Z,23.58
2022-10-13T07:19:15.467Z,32.03
2022-10-13T07:21:43.484Z,26.45
2022-10-13T07:24:11.796Z,32.67
2022-10-13T07:26:38.871Z,31.55
2022-10-13T07:29:06.133Z,36.13
2022-10-13T07:31:33.204Z,30.50
2022-10-13T07:34:01.014Z,33.58
2022-10-13T07:36:28.926Z,28.52
2022-10-13T07:38:56.001Z,35.70
2022-10-13T07:41:23.142Z,35.13
2022-10-13T07:43:54.754Z,32.38
2022-10-13T07:46:22.297Z,25.15
2022-10-13T07:48:49.058Z,30.60
2022-10-13T07:51:15.881Z,34.50
2022-10-13T07:53:43.221Z,38.60
2022-10-13T07:56:11.815Z,36.85
2022-10-13T07:58:39.940Z,34.63
2022-10-13T08:01:09.701Z,32.42
2022-10-13T08:03:40.187Z,33.88
2022-10-13T08:06:09.235Z,33.28
2022-10-13T08:08:36.710Z,26.58
2022-10-13T08:11:04.656Z,31.17
2022-10-13T08:13:32.144Z,30.95
2022-10-13T08:16:06.221Z,32.55
2022-10-13T08:18:32.958Z,21.52
2022-10-13T08:21:23.946Z,33.58
2022-10-13T08:23:48.585Z,33.08
2022-10-13T08:26:24.061Z,29.67
2022-10-13T08:29:09.635Z,29.52
2022-10-13T08:31:38.764Z,30.15
2022-10-13T08:34:06.059Z,36.33
2022-10-13T08:36:32.832Z,29.65
2022-10-13T08:38:59.857Z,30.98
2022-10-13T08:41:48.275Z,30.45
2022-10-13T08:47:19.153Z,16.27
2022-10-13T08:49:46.281Z,30.85
2022-10-13T08:52:21.717Z,20.85
2022-10-13T08:54:50.171Z,21.75
2022-10-13T08:57:17.584Z,26.92
2022-10-13T08:59:44.685Z,21.23
2022-10-13T09:02:14.656Z,26.83
2022-10-13T09:04:44.022Z,19.55
2022-10-13T09:07:18.365Z,24.27
2022-10-13T09:09:45.739Z,19.77
2022-10-13T09:12:14.174Z,28.80
2022-10-13T09:14:41.474Z,26.60
2022-10-13T09:17:26.335Z,24.73
2022-10-13T09:20:03.636Z,17.13
2022-10-13T09:22:34.398Z,21.90
2022-10-13T09:25:07.165Z,21.73
2022-10-13T09:27:42.416Z,23.45
2022-10-13T09:30:25.514Z,24.13
2022-10-13T09:32:59.665Z,22.42
2022-10-13T09:35:26.880Z,24.17
2022-10-13T09:38:11.536Z,19.20
2022-10-13T09:40:40.641Z,17.05
2022-10-13T09:43:20.739Z,25.48
2022-10-13T09:45:47.886Z,22.10
2022-10-13T09:48:22.692Z,27.30
2022-10-13T09:50:55.439Z,22.25
2022-10-13T09:53:39.855Z,27.90
2022-10-13T09:56:36.194Z,25.25
2022-10-13T09:59:37.759Z,29.42
2022-10-13T10:02:22.385Z,27.92
2022-10-13T10:04:53.356Z,22.15
2022-10-13T10:07:25.360Z,23.73
2022-10-13T10:09:58.207Z,23.65
2022-10-13T10:12:30.701Z,23.50
2022-10-13T10:14:57.917Z,21.70
2022-10-13T10:17:40.381Z,25.15
2022-10-13T10:20:28.718Z,24.13
2022-10-13T10:23:26.611Z,19.88
2022-10-13T10:26:32.730Z,20.13
2022-10-13T10:29:14.641Z,22.58
2022-10-13T10:32:02.951Z,26.20
2022-10-13T10:34:42.340Z,21.77
2022-10-13T10:37:09.371Z,24.75
2022-10-13T10:39:36.385Z,20.88
2022-10-13T10:42:51.826Z,23.52
2022-10-13T10:45:24.714Z,20.70
2022-10-13T10:47:56.710Z,18.90
2022-10-13T10:50:24.679Z,22.05
2022-10-13T10:53:07.171Z,22.48
2022-10-13T10:58:39.683Z,23.90
2022-10-13T11:01:22.557Z,26.95
2022-10-13T11:03:49.637Z,23.00
2022-10-13T11:06:16.659Z,18.00
2022-10-13T11:08:49.166Z,18.75
2022-10-13T11:11:26.737Z,17.00
2022-10-13T11:13:55.114Z,18.80
2022-10-13T11:16:37.866Z,19.35
2022-10-13T11:19:35.920Z,19.45
2022-10-13T11:22:02.505Z,20.92
2022-10-13T11:24:36.446Z,16.13
2022-10-13T11:27:09.094Z,18.90
2022-10-13T11:32:27.340Z,21.48
2022-10-13T11:35:21.685Z,19.60
2022-10-13T11:38:06.798Z,17.02
2022-10-13T11:41:00.373Z,23.67
2022-10-13T11:43:55.111Z,26.52
2022-10-13T11:46:51.115Z,20.10
2022-10-13T11:49:52.564Z,20.85
2022-10-13T11:52:19.825Z,25.95
2022-10-13T11:55:02.720Z,20.77
2022-10-13T11:57:32.642Z,23.13
2022-10-13T12:00:01.882Z,24.63
2022-10-13T12:02:49.244Z,22.45
2022-10-13T12:05:29.353Z,23.70
2022-10-13T12:08:03.072Z,22.85
2022-10-13T12:10:32.976Z,25.38
2022-10-13T12:15:40.980Z,19.40
2022-10-13T12:18:33.916Z,25.58
2022-10-13T12:21:22.423Z,24.52
2022-10-13T12:23:51.444Z,24.02
2022-10-13T12:26:21.215Z,25.58
2022-10-13T12:29:04.513Z,26.25
2022-10-13T12:31:44.053Z,27.27
2022-10-13T12:34:21.490Z,23.20
2022-10-13T12:37:00.094Z,24.65
2022-10-13T12:39:29.428Z,26.65
2022-10-13T12:41:57.933Z,23.80
2022-10-13T12:44:27.554Z,26.63
2022-10-13T12:46:58.909Z,22.75
2022-10-13T12:49:31.412Z,24.52
2022-10-13T12:52:07.297Z,22.27
2022-10-13T12:54:37.743Z,22.52
2022-10-13T12:57:06.533Z,26.65
2022-10-13T12:59:34.516Z,25.83
2022-10-13T13:02:04.006Z,23.08
2022-10-13T13:04:40.291Z,24.70
2022-10-13T13:10:04.027Z,23.73
2022-10-13T13:12:31.266Z,26.52
2022-10-13T13:14:58.612Z,17.30
2022-10-13T13:17:57.921Z,22.35
2022-10-13T13:20:32.263Z,20.27
2022-10-13T13:22:59.407Z,22.23
2022-10-13T13:25:26.467Z,24.10
2022-10-13T13:27:53.758Z,20.33
2022-10-13T13:30:22.667Z,23.42
2022-10-13T13:32:50.300Z,21.17
2022-10-13T13:35:18.384Z,22.95
2022-10-13T13:37:52.799Z,23.98
2022-10-13T13:40:27.956Z,20.35
2022-10-13T13:42:55.221Z,20.90
2022-10-13T13:45:25.608Z,17.27
2022-10-13T13:47:57.973Z,16.45
2022-10-13T13:50:35.628Z,21.95
2022-10-13T13:53:03.618Z,25.48
2022-10-13T13:55:30.850Z,22.63
2022-10-13T13:57:58.396Z,22.00
2022-10-13T14:00:25.153Z,22.75
2022-10-13T14:02:56.267Z,24.45
2022-10-13T14:05:23.682Z,20.67
2022-10-13T14:07:53.537Z,21.35
2022-10-13T14:10:20.617Z,22.55
2022-10-13T14:12:47.843Z,22.08
2022-10-13T14:15:14.895Z,22.17
2022-10-13T14:17:41.971Z,22.55
2022-10-13T14:20:09.266Z,20.02
2022-10-13T14:22:38.873Z,23.33
2022-10-13T14:25:09.228Z,19.65
2022-10-13T14:27:37.011Z,22.48
2022-10-13T14:30:06.420Z,23.38
2022-10-13T14:32:34.047Z,22.52
2022-10-13T14:35:01.123Z,22.50
2022-10-13T14:37:33.078Z,23.00
2022-10-13T14:40:00.880Z,23.10
2022-10-13T14:42:29.581Z,25.90
2022-10-13T14:44:56.844Z,24.98
2022-10-13T14:47:24.127Z,21.95
2022-10-13T14:49:51.251Z,26.38
2022-10-13T14:52:18.323Z,20.67
2022-10-13T14:54:45.344Z,24.67
2022-10-13T14:57:15.788Z,27.65
2022-10-13T14:59:42.841Z,24.05
2022-10-13T15:02:10.977Z,22.77
2022-10-13T15:04:37.852Z,23.27
2022-10-13T15:07:04.856Z,22.67
2022-10-13T15:09:52.345Z,22.08
2022-10-13T15:12:23.427Z,23.83
2022-10-13T15:14:50.622Z,20.65
2022-10-13T15:17:17.742Z,24.48
2022-10-13T15:19:44.494Z,25.25
2022-10-13T15:22:11.803Z,24.63
2022-10-13T15:24:38.832Z,22.58
2022-10-13T15:27:05.857Z,24.48
2022-10-13T15:29:32.496Z,24.60
2022-10-13T15:32:09.311Z,24.73
2022-10-13T15:34:36.434Z,25.48
2022-10-13T15:37:03.526Z,23.42
2022-10-13T15:39:30.634Z,25.20
2022-10-13T15:41:57.312Z,25.95
2022-10-13T15:44:27.545Z,21.55
2022-10-13T15:47:07.433Z,25.73
2022-10-13T15:49:39.674Z,26.30
2022-10-13T15:52:06.455Z,24.45
2022-10-13T15:54:35.672Z,23.63
2022-10-13T15:57:02.746Z,25.98
2022-10-13T15:59:29.812Z,26.83
2022-10-13T16:01:57.143Z,26.27
2022-10-13T16:04:24.221Z,23.25
2022-10-13T16:06:51.284Z,26.52
2022-10-13T16:09:18.332Z,29.60
2022-10-13T16:11:45.372Z,26.15
2022-10-13T16:14:12.498Z,21.52
2022-10-13T16:16:39.621Z,21.90
2022-10-13T16:19:08.016Z,25.17
2022-10-13T16:21:34.735Z,23.05
2022-10-13T16:24:04.911Z,25.10
2022-10-13T16:26:31.956Z,23.95
2022-10-13T16:28:59.031Z,23.27
2022-10-13T16:31:25.967Z,25.88
2022-10-13T16:33:53.239Z,23.77
2022-10-13T16:36:20.665Z,29.27
2022-10-13T16:38:52.313Z,29.73
2022-10-13T16:41:19.671Z,27.40
2022-10-13T16:43:47.891Z,23.95
2022-10-13T16:46:16.485Z,23.85
2022-10-13T16:48:44.719Z,21.95
2022-10-13T16:51:23.518Z,21.33
2022-10-13T16:53:52.508Z,23.08
2022-10-13T16:56:22.810Z,20.17
2022-10-13T16:58:52.413Z,24.23
2022-10-13T17:01:19.804Z,20.75
2022-10-13T17:03:47.621Z,22.35
2022-10-13T17:06:15.154Z,22.20
2022-10-13T17:08:42.743Z,23.33
2022-10-13T17:11:14.982Z,24.88
2022-10-13T17:13:42.030Z,23.25
2022-10-13T17:16:09.076Z,20.88
2022-10-13T17:18:38.171Z,22.02
2022-10-13T17:21:09.007Z,21.27
2022-10-13T17:23:36.173Z,22.60
2022-10-13T17:26:09.647Z,21.42
2022-10-13T17:28:37.461Z,24.20
2022-10-13T17:31:18.667Z,22.30
2022-10-13T17:33:46.464Z,22.15
2022-10-13T17:36:19.633Z,21.95
2022-10-13T17:38:49.096Z,21.52
2022-10-13T17:41:16.521Z,22.25
2022-10-13T17:43:51.728Z,21.55
2022-10-13T17:46:36.130Z,20.30
2022-10-13T17:49:04.592Z,20.27
2022-10-13T17:51:31.490Z,21.70
2022-10-13T17:53:59.886Z,20.00
2022-10-13T17:56:27.569Z,20.45
2022-10-13T17:58:55.064Z,18.27
2022-10-13T18:01:28.128Z,19.38
2022-10-13T18:03:58.701Z,19.70
2022-10-13T18:06:36.913Z,23.45
2022-10-13T18:09:07.038Z,24.33
2022-10-13T18:11:34.888Z,23.35
2022-10-13T18:14:02.283Z,24.17
2022-10-13T18:16:29.366Z,22.33
2022-10-13T18:18:56.447Z,19.92
2022-10-13T18:21:27.525Z,19.73
2022-10-13T18:23:55.767Z,20.45
2022-10-13T18:26:23.077Z,21.63
2022-10-13T18:28:53.360Z,23.63
2022-10-13T18:31:28.831Z,20.00
2022-10-13T18:34:01.152Z,20.30
2022-10-13T18:36:31.309Z,19.45
2022-10-13T18:39:08.218Z,23.50
2022-10-13T18:41:36.334Z,21.45
2022-10-13T18:44:04.010Z,24.58
2022-10-13T18:46:31.458Z,26.63
2022-10-13T18:49:00.756Z,27.40
2022-10-13T18:51:33.373Z,24.55
2022-10-13T18:54:02.910Z,20.30
2022-10-13T18:56:30.856Z,20.67
2022-10-13T18:59:00.105Z,23.13
2022-10-13T19:01:30.654Z,21.65
2022-10-13T19:03:58.136Z,22.55
2022-10-13T19:06:26.836Z,21.67
2022-10-13T19:09:00.545Z,22.55
2022-10-13T19:11:28.673Z,26.85
2022-10-13T19:13:55.816Z,24.85
2022-10-13T19:16:24.234Z,24.23
2022-10-13T19:18:51.943Z,28.85
2022-10-13T19:21:19.561Z,31.05
2022-10-13T19:23:46.616Z,32.15
2022-10-13T19:26:21.170Z,30.08
2022-10-13T19:28:48.337Z,33.58
2022-10-13T19:31:17.314Z,39.08
2022-10-13T19:33:46.952Z,52.92
2022-10-13T19:36:22.304Z,66.20
2022-10-13T19:38:50.292Z,73.57
2022-10-13T19:41:17.773Z,50.58
2022-10-13T19:43:44.833Z,38.30
2022-10-13T19:46:12.147Z,34.17
2022-10-13T19:48:39.239Z,38.17
2022-10-13T19:51:07.066Z,40.38
2022-10-13T19:53:34.744Z,36.38
2022-10-13T19:56:01.789Z,35.03
2022-10-13T19:58:28.916Z,34.88
2022-10-13T20:00:56.177Z,38.40
2022-10-13T20:03:24.599Z,37.72
2022-10-13T20:05:51.711Z,37.85
2022-10-13T20:08:18.860Z,37.13
2022-10-13T20:10:46.192Z,36.30
2022-10-13T20:13:13.298Z,38.47
2022-10-13T20:15:43.869Z,36.83
2022-10-13T20:18:12.997Z,38.08
2022-10-13T20:20:40.880Z,39.80
2022-10-13T20:23:08.486Z,42.58
2022-10-13T20:25:38.947Z,41.08
2022-10-13T20:28:06.786Z,42.08
2022-10-13T20:30:34.190Z,42.50
2022-10-13T20:33:01.383Z,47.78
2022-10-13T20:35:28.500Z,38.78
2022-10-13T20:37:58.238Z,38.65
2022-10-13T20:40:25.320Z,34.17
2022-10-13T20:42:53.076Z,35.03
2022-10-13T20:45:20.550Z,40.17
2022-10-13T20:47:48.611Z,34.33
2022-10-13T20:50:15.720Z,35.42
2022-10-13T20:52:42.798Z,33.67
2022-10-13T20:55:09.917Z,36.65
2022-10-13T20:57:37.302Z,30.88
2022-10-13T21:00:05.402Z,31.90
2022-10-13T21:02:32.544Z,28.70
2022-10-13T21:04:59.599Z,30.70
2022-10-13T21:07:28.380Z,33.47
2022-10-13T21:09:55.463Z,31.67
2022-10-13T21:12:22.580Z,32.67
2022-10-13T21:14:52.150Z,36.08
2022-10-13T21:17:19.495Z,37.20
2022-10-13T21:19:46.855Z,37.00
2022-10-13T21:22:13.893Z,34.70
2022-10-13T21:24:41.148Z,34.47
2022-10-13T21:27:08.206Z,35.28
2022-10-13T21:29:35.251Z,34.97
2022-10-13T21:32:02.270Z,34.25
2022-10-13T21:34:29.557Z,34.13
2022-10-13T21:36:56.623Z,37.85
2022-10-13T21:39:23.733Z,32.15
2022-10-13T21:41:50.772Z,32.05
2022-10-13T21:44:17.819Z,34.95
2022-10-13T21:46:45.719Z,35.72
2022-10-13T21:49:12.761Z,34.55
2022-10-13T21:51:40.567Z,34.13
2022-10-13T21:54:12.658Z,31.92
2022-10-13T21:56:40.114Z,30.58
2022-10-13T21:59:07.463Z,32.50
2022-10-13T22:01:34.593Z,37.45
2022-10-13T22:04:04.055Z,35.55
2022-10-13T22:06:32.325Z,36.47
2022-10-13T22:09:00.209Z,40.33
2022-10-13T22:11:31.360Z,33.05
2022-10-13T22:13:58.657Z,33.70
2022-10-13T22:16:27.408Z,31.27
2022-10-13T22:18:57.368Z,26.67
2022-10-13T22:21:26.805Z,30.45
2022-10-13T22:23:56.735Z,30.48
2022-10-13T22:26:24.051Z,28.02
2022-10-13T22:28:51.786Z,30.25
2022-10-13T22:31:18.804Z,30.85
2022-10-13T22:33:46.263Z,30.13
2022-10-13T22:36:17.868Z,26.55
2022-10-13T22:38:45.670Z,35.85
2022-10-13T22:41:14.450Z,33.08
2022-10-13T22:43:43.998Z,44.45
2022-10-13T22:46:18.310Z,74.00
2022-10-13T22:48:45.469Z,102.68
2022-10-13T22:51:15.472Z,54.60
2022-10-13T22:53:42.779Z,67.43
2022-10-13T22:56:10.807Z,76.55
2022-10-13T22:58:38.283Z,89.00
2022-10-13T23:01:13.171Z,76.68
2022-10-13T23:03:40.630Z,72.30
2022-10-13T23:06:08.724Z,75.53
2022-10-13T23:08:35.978Z,58.88
2022-10-13T23:11:03.203Z,56.95
2022-10-13T23:13:30.291Z,55.92
2022-10-13T23:16:05.383Z,99.82
2022-10-13T23:18:34.658Z,50.38
2022-10-13T23:21:08.335Z,112.20
2022-10-13T23:23:35.695Z,104.38
2022-10-13T23:26:06.384Z,66.78
2022-10-13T23:28:33.674Z,176.13
2022-10-13T23:31:05.491Z,273.25
2022-10-13T23:33:32.635Z,150.02
2022-10-13T23:36:00.905Z,133.85
2022-10-13T23:38:29.327Z,252.07
2022-10-13T23:40:56.623Z,198.10
2022-10-13T23:43:23.691Z,125.93
2022-10-13T23:45:50.736Z,89.38
2022-10-13T23:48:17.795Z,273.13
2022-10-13T23:50:44.950Z,224.45
2022-10-13T23:53:11.987Z,232.65
2022-10-13T23:55:39.708Z,289.10
2022-10-13T23:58:07.001Z,135.27
